Time;durP1;ratioP1;P1;durP2;ratioP2;P2;SDS_P1;SDS_P2;PMS_P1;PMS_P2;Temp;Humidity;BMP_temperature;BMP_pressure;BME280_temperature;BME280_humidity;BME280_pressure;Samples;Min_cycle;Max_cycle;Signal;HPM_P1;HPM_P2
2022/03/30 00:01:20;;;;;;;18.75;8.07;;;;;;;8.30;45.86;99033.72;5090182;28;20078;-60
2022/03/30 00:03:47;;;;;;;18.02;8.18;;;;;;;8.21;45.95;99029.00;5089638;28;20075;-60
2022/03/30 00:06:13;;;;;;;17.27;6.88;;;;;;;8.13;46.33;99033.88;5090919;28;20732;-60
2022/03/30 00:08:42;;;;;;;16.38;7.13;;;;;;;8.03;46.39;99036.16;5090533;28;20073;-60
2022/03/30 00:11:10;;;;;;;18.05;7.40;;;;;;;7.95;46.28;99040.09;5090289;28;20109;-62
2022/03/30 00:13:37;;;;;;;17.63;7.57;;;;;;;7.90;46.66;99038.66;5090363;28;20052;-59
2022/03/30 00:16:06;;;;;;;14.27;6.30;;;;;;;7.85;46.62;99041.53;5088927;28;20609;-59
2022/03/30 00:18:33;;;;;;;12.00;6.63;;;;;;;7.86;46.85;99042.41;5090603;28;20131;-59
2022/03/30 00:21:00;;;;;;;16.48;6.32;;;;;;;7.86;46.88;99048.50;5090217;28;20056;-60
2022/03/30 00:23:26;;;;;;;13.82;6.40;;;;;;;7.86;47.25;99040.63;5090405;28;20089;-59
2022/03/30 00:25:53;;;;;;;14.25;6.32;;;;;;;7.87;47.12;99044.94;5090285;28;20192;-62
2022/03/30 00:28:20;;;;;;;17.55;6.63;;;;;;;7.87;46.75;99046.69;5090195;28;20089;-60
2022/03/30 00:30:46;;;;;;;11.20;5.65;;;;;;;7.86;46.80;99042.41;5089759;28;20047;-60
2022/03/30 00:33:13;;;;;;;14.57;5.80;;;;;;;7.82;46.93;99037.31;5089981;28;20056;-60
2022/03/30 00:35:39;;;;;;;10.43;5.78;;;;;;;7.80;47.16;99043.59;5090353;28;20116;-61
2022/03/30 00:38:06;;;;;;;12.25;5.97;;;;;;;7.78;47.18;99045.47;5089933;28;20040;-60
2022/03/30 00:40:32;;;;;;;13.55;6.40;;;;;;;7.75;47.00;99045.63;5089868;28;20091;-59
2022/03/30 00:42:59;;;;;;;10.82;5.47;;;;;;;7.75;47.62;99035.16;5089986;28;20048;-60
2022/03/30 00:45:26;;;;;;;14.88;6.03;;;;;;;7.76;47.52;99034.22;5089762;28;20093;-61
2022/03/30 00:47:53;;;;;;;18.50;6.40;;;;;;;7.76;47.57;99035.06;5090032;28;20051;-61
2022/03/30 00:50:21;;;;;;;10.93;5.35;;;;;;;7.79;47.58;99041.91;5090050;28;20044;-59
2022/03/30 00:52:51;;;;;;;11.82;5.22;;;;;;;7.82;47.98;99041.75;5088861;28;20047;-61
2022/03/30 00:55:18;;;;;;;16.90;5.72;;;;;;;7.86;47.96;99037.16;5090171;28;20431;-59
2022/03/30 00:57:46;;;;;;;12.57;5.55;;;;;;;7.90;47.75;99022.94;5090103;28;20044;-60
2022/03/30 01:00:15;;;;;;;15.20;6.13;;;;;;;7.92;47.88;99026.31;5088686;28;20056;-60
2022/03/30 01:02:44;;;;;;;13.70;6.05;;;;;;;7.95;48.37;99028.75;5098069;28;20566;-60
2022/03/30 01:05:12;;;;;;;12.30;5.60;;;;;;;7.95;47.70;99027.00;5088598;28;20753;-60
2022/03/30 01:07:39;;;;;;;13.60;6.05;;;;;;;7.94;47.57;99021.84;5089476;28;20048;-60
2022/03/30 01:10:07;;;;;;;16.50;6.68;;;;;;;7.93;47.85;99017.53;5089446;28;20105;-60
2022/03/30 01:12:38;;;;;;;15.32;6.68;;;;;;;7.90;47.71;99012.47;5088077;28;20052;-59
2022/03/30 01:15:08;;;;;;;13.48;6.50;;;;;;;7.89;48.03;99011.63;5089686;28;20079;-59
2022/03/30 01:17:37;;;;;;;16.65;7.53;;;;;;;7.87;48.00;99008.25;5088254;28;20089;-60
2022/03/30 01:20:05;;;;;;;13.00;7.22;;;;;;;7.83;48.25;98998.88;5089517;28;20097;-60
2022/03/30 01:22:33;;;;;;;14.20;6.80;;;;;;;7.81;47.92;98988.47;5089499;28;20051;-61
2022/03/30 01:25:01;;;;;;;14.93;6.93;;;;;;;7.79;47.94;98995.59;5089441;28;20048;-61
2022/03/30 01:27:27;;;;;;;17.30;6.95;;;;;;;7.76;48.20;98989.69;5089205;28;20074;-60
2022/03/30 01:32:41;;;;;;;16.00;7.25;;;;;;;7.74;48.21;98981.06;5089451;28;20052;-61
2022/03/30 01:35:10;;;;;;;14.13;6.65;;;;;;;7.73;48.40;98980.22;5089263;28;20446;-60
2022/03/30 01:37:37;;;;;;;16.48;7.07;;;;;;;7.71;48.33;98969.00;5089390;28;20101;-59
2022/03/30 01:40:05;;;;;;;16.02;6.53;;;;;;;7.70;48.47;98972.53;5089149;28;20044;-61
2022/03/30 01:42:32;;;;;;;14.90;6.53;;;;;;;7.71;48.53;98965.53;5088055;28;20048;-60
2022/03/30 01:44:59;;;;;;;16.83;7.78;;;;;;;7.73;48.78;98968.91;5089394;28;20060;-60
2022/03/30 01:47:26;;;;;;;10.93;6.40;;;;;;;7.73;48.74;98959.25;5093212;28;20381;-60
2022/03/30 01:49:52;;;;;;;19.60;7.88;;;;;;;7.76;48.29;98955.63;5092883;28;20553;-59
2022/03/30 01:52:19;;;;;;;17.48;7.93;;;;;;;7.77;48.44;98954.69;5093318;28;20059;-62
2022/03/30 01:54:46;;;;;;;14.43;8.13;;;;;;;7.78;48.62;98959.84;5093222;28;20044;-61
2022/03/30 01:57:13;;;;;;;15.23;7.93;;;;;;;7.79;48.77;98955.44;5091951;28;20549;-62
2022/03/30 01:59:42;;;;;;;17.48;8.13;;;;;;;7.77;49.06;98960.78;5092684;28;20044;-60
2022/03/30 02:02:09;;;;;;;18.05;8.60;;;;;;;7.79;49.02;98958.91;5092828;28;20101;-60
2022/03/30 02:04:36;;;;;;;15.38;7.85;;;;;;;7.80;48.70;98952.75;5092824;28;20101;-62
2022/03/30 02:07:05;;;;;;;21.40;8.93;;;;;;;7.83;48.83;98938.63;5092689;28;20064;-60
2022/03/30 02:09:32;;;;;;;23.15;8.25;;;;;;;7.86;48.88;98935.81;5092740;28;20064;-61
2022/03/30 02:11:59;;;;;;;18.38;9.68;;;;;;;7.87;48.65;98940.13;5092613;28;20055;-60
2022/03/30 02:14:26;;;;;;;17.33;8.90;;;;;;;7.87;48.28;98936.66;5092759;28;20059;-61
2022/03/30 02:16:53;;;;;;;18.38;8.55;;;;;;;7.85;48.84;98928.88;5092702;28;20557;-60
2022/03/30 02:19:20;;;;;;;20.48;9.73;;;;;;;7.81;48.66;98935.22;5092730;28;20048;-60
2022/03/30 02:21:47;;;;;;;20.55;9.25;;;;;;;7.76;48.48;98925.03;5092685;28;20064;-60
2022/03/30 02:24:13;;;;;;;19.35;9.73;;;;;;;7.73;48.71;98927.00;5092474;28;20051;-60
2022/03/30 02:26:40;;;;;;;19.52;10.55;;;;;;;7.69;49.16;98926.31;5092334;28;20044;-61
2022/03/30 02:29:06;;;;;;;19.17;9.63;;;;;;;7.67;49.13;98934.25;5092351;28;20488;-63
2022/03/30 02:31:34;;;;;;;21.35;10.70;;;;;;;7.67;49.52;98928.19;5092237;28;20048;-60
2022/03/30 02:34:01;;;;;;;17.88;9.65;;;;;;;7.68;49.46;98920.25;5092510;28;20048;-59
2022/03/30 02:36:27;;;;;;;19.38;10.30;;;;;;;7.71;49.23;98921.00;5092446;28;20105;-60
2022/03/30 02:38:55;;;;;;;20.65;10.35;;;;;;;7.75;49.20;98912.03;5092270;28;20105;-62
2022/03/30 02:41:22;;;;;;;19.98;11.15;;;;;;;7.78;49.22;98912.66;5092065;28;20125;-59
2022/03/30 02:43:49;;;;;;;20.75;10.93;;;;;;;7.81;49.10;98911.66;5092059;28;20052;-60
2022/03/30 02:46:17;;;;;;;18.77;10.90;;;;;;;7.80;49.34;98912.59;5091985;28;20048;-60
2022/03/30 02:48:43;;;;;;;20.23;11.00;;;;;;;7.78;49.00;98907.44;5090649;28;20415;-60
2022/03/30 02:51:10;;;;;;;20.80;10.02;;;;;;;7.79;49.36;98909.16;5091704;28;20048;-60
2022/03/30 02:53:37;;;;;;;19.33;11.10;;;;;;;7.76;49.31;98900.59;5091889;28;20055;-59
2022/03/30 02:56:05;;;;;;;21.85;11.38;;;;;;;7.75;49.55;98891.06;5091738;28;20051;-59
2022/03/30 02:58:32;;;;;;;18.95;11.15;;;;;;;7.76;49.15;98898.84;5091846;28;20105;-61
2022/03/30 03:00:59;;;;;;;21.30;11.27;;;;;;;7.77;49.37;98899.66;5091529;28;20052;-61
2022/03/30 03:03:26;;;;;;;23.45;11.35;;;;;;;7.77;49.24;98899.66;5091863;28;20051;-60
2022/03/30 03:05:53;;;;;;;20.38;11.02;;;;;;;7.79;49.49;98888.19;5090535;28;20052;-60
2022/03/30 03:08:19;;;;;;;20.58;10.88;;;;;;;7.81;49.37;98888.06;5091508;28;20047;-60
2022/03/30 03:10:47;;;;;;;21.85;11.02;;;;;;;7.85;49.60;98891.38;5091333;28;20044;-60
2022/03/30 03:13:16;;;;;;;22.65;11.25;;;;;;;7.86;49.41;98891.28;5091590;28;20161;-59
2022/03/30 03:15:45;;;;;;;21.50;11.00;;;;;;;7.87;49.67;98892.09;5091659;28;20101;-60
2022/03/30 03:18:18;;;;;;;20.50;12.30;;;;;;;7.87;49.47;98892.97;5091566;28;20484;-60
2022/03/30 03:20:46;;;;;;;22.30;11.45;;;;;;;7.88;49.53;98888.53;5089958;28;20055;-61
2022/03/30 03:23:14;;;;;;;21.38;11.48;;;;;;;7.90;49.76;98891.94;5091402;28;20044;-61
2022/03/30 03:25:41;;;;;;;22.88;11.82;;;;;;;7.93;49.62;98886.50;5091495;28;20043;-60
2022/03/30 03:28:09;;;;;;;23.20;11.57;;;;;;;7.95;49.94;98882.88;5091390;28;20052;-60
2022/03/30 03:30:36;;;;;;;22.17;11.02;;;;;;;8.00;49.84;98879.94;5091164;28;20105;-61
2022/03/30 03:33:05;;;;;;;23.77;10.93;;;;;;;8.03;50.00;98879.75;5091165;28;20089;-61
2022/03/30 03:35:32;;;;;;;20.30;11.18;;;;;;;8.07;50.13;98869.94;5091039;28;20420;-60
2022/03/30 03:38:00;;;;;;;17.40;10.88;;;;;;;8.11;50.10;98873.22;5091017;28;20056;-61
2022/03/30 03:40:30;;;;;;;19.42;10.90;;;;;;;8.13;49.90;98879.19;5089533;28;20040;-60
2022/03/30 03:42:58;;;;;;;20.50;10.27;;;;;;;8.15;49.81;98879.97;5091138;28;20052;-59
2022/03/30 03:45:25;;;;;;;17.90;11.13;;;;;;;8.16;49.62;98876.41;5089649;28;20048;-60
2022/03/30 03:47:52;;;;;;;20.08;10.73;;;;;;;8.18;49.94;98877.13;5090981;28;20094;-60
2022/03/30 03:50:19;;;;;;;19.45;10.27;;;;;;;8.18;49.83;98867.50;5090723;28;20060;-60
2022/03/30 03:52:46;;;;;;;21.27;11.27;;;;;;;8.21;49.82;98876.97;5090632;28;20450;-60
2022/03/30 03:55:18;;;;;;;;;;;;;;;8.21;49.71;98869.09;5091453;28;20056;-59
2022/03/30 03:57:45;;;;;;;17.98;10.48;;;;;;;8.26;49.40;98868.81;5090592;28;20500;-60
2022/03/30 04:00:13;;;;;;;16.42;9.80;;;;;;;8.24;49.50;98868.06;5090740;28;20480;-60
2022/03/30 04:02:40;;;;;;;21.05;10.60;;;;;;;8.22;49.39;98862.91;5090996;28;20056;-60
2022/03/30 04:05:09;;;;;;;20.95;10.70;;;;;;;8.21;49.45;98867.31;5089073;28;20108;-61
2022/03/30 04:07:38;;;;;;;21.25;10.57;;;;;;;8.19;49.85;98861.31;5088571;28;20046;-60
2022/03/30 04:10:09;;;;;;;17.40;10.85;;;;;;;8.18;50.49;98858.78;5089103;28;20074;-60
2022/03/30 04:12:40;;;;;;;17.20;10.13;;;;;;;8.19;49.67;98857.88;5089162;28;20048;-61
2022/03/30 04:15:08;;;;;;;23.63;11.82;;;;;;;8.18;49.46;98857.03;5090401;28;20048;-61
2022/03/30 04:17:41;;;;;;;22.48;10.90;;;;;;;8.16;50.54;98853.66;5090237;28;20047;-61
2022/03/30 04:20:08;;;;;;;19.15;11.10;;;;;;;8.18;49.52;98854.41;5089223;28;20220;-60
2022/03/30 04:22:35;;;;;;;18.90;11.10;;;;;;;8.18;49.92;98854.41;5090195;28;20519;-60
2022/03/30 04:25:04;;;;;;;24.33;11.38;;;;;;;8.18;49.50;98851.78;5090392;28;20048;-59
2022/03/30 04:27:31;;;;;;;20.10;10.60;;;;;;;8.20;49.65;98851.69;5090221;28;20055;-60
2022/03/30 04:29:57;;;;;;;21.42;10.43;;;;;;;8.19;49.78;98848.22;5089895;28;20077;-60
2022/03/30 04:32:24;;;;;;;19.92;11.15;;;;;;;8.19;49.91;98845.59;5088802;28;20048;-60
2022/03/30 04:34:51;;;;;;;20.60;11.60;;;;;;;8.20;49.79;98847.28;5089954;28;20549;-61
2022/03/30 04:37:17;;;;;;;19.58;10.93;;;;;;;8.22;49.95;98834.06;5088852;28;20051;-60
2022/03/30 04:39:44;;;;;;;19.67;11.05;;;;;;;8.21;50.16;98830.63;5089700;28;20044;-61
2022/03/30 04:42:10;;;;;;;20.98;10.38;;;;;;;8.24;49.91;98833.97;5090005;28;20047;-61
2022/03/30 04:44:37;;;;;;;20.40;10.82;;;;;;;8.24;50.22;98836.59;5089791;28;20542;-60
2022/03/30 04:47:03;;;;;;;17.58;9.88;;;;;;;8.24;49.59;98831.34;5089697;28;20133;-60
2022/03/30 04:49:30;;;;;;;16.23;9.55;;;;;;;8.24;49.38;98833.97;5089667;28;20048;-60
2022/03/30 04:51:57;;;;;;;16.55;9.60;;;;;;;8.22;49.67;98836.69;5090093;28;20714;-60
2022/03/30 04:54:23;;;;;;;23.60;10.15;;;;;;;8.20;49.69;98830.72;5089610;28;20492;-61
2022/03/30 04:56:51;;;;;;;19.38;9.88;;;;;;;8.16;49.19;98827.44;5088647;28;20060;-60
2022/03/30 04:59:18;;;;;;;20.27;9.90;;;;;;;8.13;49.51;98830.25;5089407;28;20485;-59
2022/03/30 05:01:45;;;;;;;17.65;10.02;;;;;;;8.10;49.37;98832.22;5089381;28;20113;-60
2022/03/30 05:04:11;;;;;;;16.85;9.82;;;;;;;8.05;49.38;98828.13;5089715;28;20132;-60
2022/03/30 05:06:38;;;;;;;16.45;9.73;;;;;;;8.03;49.61;98836.97;5089849;28;20048;-59
2022/03/30 05:09:04;;;;;;;15.60;9.88;;;;;;;7.98;49.49;98834.66;5089599;28;20056;-60
2022/03/30 05:11:31;;;;;;;20.05;9.73;;;;;;;7.94;49.49;98839.25;5089407;28;20525;-60
2022/03/30 05:13:58;;;;;;;20.58;10.00;;;;;;;7.91;49.11;98846.44;5089555;28;20047;-60
2022/03/30 05:16:25;;;;;;;18.25;10.70;;;;;;;7.85;49.61;98839.78;5089692;28;20052;-60
2022/03/30 05:18:51;;;;;;;20.45;9.80;;;;;;;7.81;49.52;98843.53;5090622;28;20595;-61
2022/03/30 05:21:18;;;;;;;17.98;10.23;;;;;;;7.77;49.79;98831.53;5093621;28;20052;-59
2022/03/30 05:23:45;;;;;;;18.52;9.68;;;;;;;7.73;49.54;98832.69;5093676;28;20090;-59
2022/03/30 05:26:11;;;;;;;22.55;12.00;;;;;;;7.69;49.67;98838.13;5093873;28;20055;-60
2022/03/30 05:28:40;;;;;;;19.00;10.13;;;;;;;7.67;49.80;98831.28;5093479;28;20101;-61
2022/03/30 05:31:07;;;;;;;22.02;10.57;;;;;;;7.63;49.76;98833.22;5093615;28;20105;-62
2022/03/30 05:33:34;;;;;;;18.50;10.52;;;;;;;7.60;49.74;98833.44;5093367;28;20139;-60
2022/03/30 05:36:01;;;;;;;23.98;10.73;;;;;;;7.56;49.44;98826.69;5093563;28;20093;-60
2022/03/30 05:38:27;;;;;;;20.10;10.48;;;;;;;7.52;50.04;98826.00;5093251;28;20447;-59
2022/03/30 05:40:54;;;;;;;18.90;11.00;;;;;;;7.50;49.91;98822.66;5092970;28;20695;-60
2022/03/30 05:43:21;;;;;;;21.27;10.75;;;;;;;7.47;50.08;98819.38;5093567;28;20048;-60
2022/03/30 05:45:48;;;;;;;20.77;10.73;;;;;;;7.43;50.09;98822.16;5093185;28;20607;-59
2022/03/30 05:48:16;;;;;;;18.52;9.75;;;;;;;7.41;50.24;98815.34;5093104;28;20135;-60
2022/03/30 05:50:45;;;;;;;16.77;9.18;;;;;;;7.39;50.07;98815.44;5093013;28;20056;-63
2022/03/30 05:53:14;;;;;;;18.02;10.27;;;;;;;7.38;50.72;98816.38;5093292;28;20102;-60
2022/03/30 05:55:44;;;;;;;18.40;10.70;;;;;;;7.36;51.05;98812.97;5092896;28;20051;-60
2022/03/30 05:58:12;;;;;;;17.58;10.18;;;;;;;7.37;50.55;98812.03;5093453;28;20056;-59
2022/03/30 06:00:38;;;;;;;20.05;10.30;;;;;;;7.37;50.60;98814.66;5091708;28;20048;-59
2022/03/30 06:03:05;;;;;;;21.45;9.30;;;;;;;7.38;50.87;98813.75;5093089;28;20482;-59
2022/03/30 06:05:32;;;;;;;19.33;10.05;;;;;;;7.38;50.94;98818.13;5093038;28;20044;-60
2022/03/30 06:07:59;;;;;;;21.45;10.63;;;;;;;7.38;50.99;98816.38;5091811;28;20052;-61
2022/03/30 06:10:27;;;;;;;19.23;9.82;;;;;;;7.41;51.12;98817.97;5092639;28;20048;-58
2022/03/30 06:12:56;;;;;;;22.90;10.75;;;;;;;7.39;51.53;98810.19;5093183;28;20059;-59
2022/03/30 06:15:24;;;;;;;21.42;9.68;;;;;;;7.40;50.79;98809.25;5092903;28;20044;-61
2022/03/30 06:17:51;;;;;;;25.58;9.90;;;;;;;7.42;51.10;98815.25;5092898;28;20124;-62
2022/03/30 06:20:18;;;;;;;19.67;9.90;;;;;;;7.42;50.92;98820.50;5091296;28;20040;-62
2022/03/30 06:22:47;;;;;;;20.42;10.40;;;;;;;7.45;51.23;98822.09;5092393;28;20097;-63
2022/03/30 06:25:14;;;;;;;24.92;9.75;;;;;;;7.47;51.38;98817.59;5092863;28;20472;-60
2022/03/30 06:27:41;;;;;;;21.17;9.80;;;;;;;7.49;51.13;98817.50;5091650;28;20048;-61
2022/03/30 06:30:09;;;;;;;18.25;10.50;;;;;;;7.49;51.15;98809.66;5091243;28;20052;-61
2022/03/30 06:32:36;;;;;;;19.58;10.35;;;;;;;7.49;51.14;98801.78;5091615;28;20462;-61
2022/03/30 06:35:09;;;;;;;;;;;;;;;7.47;51.27;98807.13;5092943;28;20044;-60
2022/03/30 06:37:35;;;;;;;21.85;9.40;;;;;;;7.50;50.80;98808.69;5107817;28;20638;-62
2022/03/30 06:40:03;;;;;;;19.88;10.32;;;;;;;7.48;51.14;98813.19;5092116;28;20048;-60
2022/03/30 06:42:29;;;;;;;17.73;9.98;;;;;;;7.49;51.52;98812.25;5090772;28;20093;-62
2022/03/30 06:44:56;;;;;;;17.08;9.65;;;;;;;7.53;51.64;98811.16;5092030;28;20059;-61
2022/03/30 06:47:23;;;;;;;20.50;9.98;;;;;;;7.56;51.91;98818.81;5092189;28;20089;-60
2022/03/30 06:49:49;;;;;;;15.00;8.82;;;;;;;7.61;51.60;98811.53;5091664;28;20044;-60
2022/03/30 06:52:16;;;;;;;17.55;8.52;;;;;;;7.65;51.91;98805.19;5090880;28;20196;-61
2022/03/30 06:54:42;;;;;;;16.85;7.40;;;;;;;7.71;51.72;98808.34;5092364;28;20075;-61
2022/03/30 06:57:09;;;;;;;21.23;7.80;;;;;;;7.76;51.94;98806.28;5091025;28;20093;-60
2022/03/30 06:59:35;;;;;;;15.23;7.53;;;;;;;7.82;52.02;98811.19;5091668;28;20056;-60
2022/03/30 07:02:02;;;;;;;16.88;7.00;;;;;;;7.87;51.62;98803.03;5091495;28;20135;-63
2022/03/30 07:04:29;;;;;;;18.67;7.15;;;;;;;7.95;52.01;98808.63;5081661;28;20036;-59
2022/03/30 07:12:26;;;;;;;12.00;6.78;;;;;;;8.24;51.70;98807.75;5090919;28;20051;-60
2022/03/30 07:14:53;;;;;;;17.38;7.40;;;;;;;8.34;51.74;98816.75;5090974;28;20454;-60
2022/03/30 07:17:19;;;;;;;14.63;6.43;;;;;;;8.46;51.68;98818.56;5090326;28;20048;-60
2022/03/30 07:19:46;;;;;;;16.70;5.97;;;;;;;8.58;51.80;98819.63;5091418;28;20474;-61
2022/03/30 07:22:13;;;;;;;12.70;4.95;;;;;;;8.69;51.39;98818.06;5091625;28;20101;-61
2022/03/30 07:24:41;;;;;;;12.48;5.40;;;;;;;8.81;51.08;98824.31;5091177;28;20059;-60
2022/03/30 07:27:07;;;;;;;17.52;6.80;;;;;;;8.90;51.06;98820.25;5090303;28;20040;-60
2022/03/30 07:29:34;;;;;;;15.18;8.50;;;;;;;8.97;50.79;98819.75;5090952;28;20077;-60
2022/03/30 07:32:01;;;;;;;13.35;7.47;;;;;;;9.03;51.16;98818.50;5091503;28;20105;-62
2022/03/30 07:34:28;;;;;;;20.30;8.70;;;;;;;9.08;50.74;98823.47;5091359;28;20086;-59
2022/03/30 07:36:56;;;;;;;18.27;8.30;;;;;;;9.10;51.00;98819.81;5091261;28;20422;-61
2022/03/30 07:39:22;;;;;;;28.73;9.23;;;;;;;9.16;50.50;98817.69;5091118;28;20058;-60
2022/03/30 07:41:49;;;;;;;16.80;8.38;;;;;;;9.18;50.68;98821.91;5090327;28;20059;-61
2022/03/30 07:44:16;;;;;;;16.05;8.80;;;;;;;9.21;50.44;98823.47;5090795;28;20052;-59
2022/03/30 07:46:44;;;;;;;16.27;8.15;;;;;;;9.22;50.58;98828.63;5091134;28;20048;-63
2022/03/30 07:49:11;;;;;;;20.13;7.90;;;;;;;9.21;50.61;98821.72;5090526;28;20046;-66
2022/03/30 07:51:37;;;;;;;19.27;8.02;;;;;;;9.21;50.66;98821.72;5091016;28;20488;-60
2022/03/30 07:54:04;;;;;;;16.80;7.70;;;;;;;9.20;50.33;98817.38;5091002;28;20074;-60
2022/03/30 07:56:31;;;;;;;15.73;6.93;;;;;;;9.20;50.73;98822.63;5090756;28;20048;-60
2022/03/30 07:59:00;;;;;;;16.55;7.63;;;;;;;9.22;50.72;98817.28;5090726;28;20105;-60
2022/03/30 08:01:27;;;;;;;16.75;6.40;;;;;;;9.24;51.15;98825.91;5090700;28;20055;-60
2022/03/30 08:03:54;;;;;;;16.73;6.93;;;;;;;9.28;51.00;98819.53;5090880;28;20512;-60
2022/03/30 08:06:20;;;;;;;12.75;6.68;;;;;;;9.34;50.86;98821.72;5090694;28;20543;-60
2022/03/30 08:08:47;;;;;;;16.00;6.72;;;;;;;9.40;51.46;98815.22;5090456;28;20113;-59
2022/03/30 08:11:14;;;;;;;9.77;5.50;;;;;;;9.49;50.95;98822.47;5090524;28;20044;-60
2022/03/30 08:13:40;;;;;;;12.30;6.18;;;;;;;9.58;50.87;98810.50;5090645;28;20148;-61
2022/03/30 08:16:07;;;;;;;15.43;6.47;;;;;;;9.67;51.08;98814.28;5090737;28;20044;-61
2022/03/30 08:18:33;;;;;;;12.23;6.25;;;;;;;9.80;51.43;98813.44;5090429;28;20052;-61
2022/03/30 08:23:45;;;;;;;11.65;5.35;;;;;;;10.06;50.88;98806.38;5090300;28;20048;-60
2022/03/30 08:26:12;;;;;;;11.60;5.28;;;;;;;10.19;50.90;98808.97;5090333;28;20052;-61
2022/03/30 08:28:38;;;;;;;11.60;5.70;;;;;;;10.32;50.58;98805.47;5090104;28;20044;-60
2022/03/30 08:31:05;;;;;;;12.90;4.35;;;;;;;10.43;50.11;98810.78;5089927;28;20658;-59
2022/03/30 08:33:34;;;;;;;10.80;4.30;;;;;;;10.53;50.07;98808.38;5090100;28;20101;-61
2022/03/30 08:36:00;;;;;;;14.90;5.63;;;;;;;10.64;50.04;98807.59;5089954;28;20139;-61
2022/03/30 08:38:27;;;;;;;16.25;4.90;;;;;;;10.74;50.00;98805.13;5089991;28;20052;-61
2022/03/30 08:40:57;;;;;;;12.65;5.28;;;;;;;10.84;49.83;98800.03;5090018;28;20102;-60
2022/03/30 08:43:29;;;;;;;16.08;5.10;;;;;;;10.94;49.42;98795.75;5088718;28;20105;-60
2022/03/30 08:45:58;;;;;;;13.75;4.65;;;;;;;11.03;49.35;98794.25;5090197;28;20048;-60
2022/03/30 08:48:25;;;;;;;11.52;4.60;;;;;;;11.13;49.30;98804.91;5089895;28;20113;-61
2022/03/30 08:50:58;;;;;;;11.05;4.05;;;;;;;11.20;49.24;98800.88;5089726;28;20048;-60
2022/03/30 08:53:26;;;;;;;9.25;3.78;;;;;;;11.27;49.03;98799.47;5089474;28;20079;-60
2022/03/30 08:55:53;;;;;;;8.35;3.70;;;;;;;11.34;48.43;98802.47;5087981;28;20052;-61
2022/03/30 08:58:20;;;;;;;16.48;3.55;;;;;;;11.40;48.37;98799.38;5088545;28;20097;-61
2022/03/30 09:00:47;;;;;;;10.07;3.28;;;;;;;11.46;48.44;98792.78;5089734;28;20458;-60
2022/03/30 09:03:15;;;;;;;11.93;3.50;;;;;;;11.51;48.00;98792.47;5089899;28;20147;-61
2022/03/30 09:05:44;;;;;;;8.48;3.40;;;;;;;11.56;48.13;98792.94;5090060;28;20052;-60
2022/03/30 09:08:17;;;;;;;10.40;3.80;;;;;;;11.58;47.51;98785.75;5089688;28;20048;-62
2022/03/30 09:10:46;;;;;;;;;;;;;;;11.63;47.74;98788.03;5090236;28;20093;-60
2022/03/30 09:13:14;;;;;;;9.75;3.50;;;;;;;11.71;47.43;98789.09;5089686;28;19974;-63
2022/03/30 09:15:41;;;;;;;10.18;3.25;;;;;;;11.74;47.30;98785.41;5088149;28;20504;-61
2022/03/30 09:18:14;;;;;;;8.80;3.58;;;;;;;11.78;47.32;98784.19;5089770;28;20044;-60
2022/03/30 09:20:45;;;;;;;7.72;3.63;;;;;;;11.82;47.20;98777.72;5088553;28;20052;-60
2022/03/30 09:23:13;;;;;;;10.45;3.97;;;;;;;11.86;46.96;98781.78;5088371;28;20047;-60
2022/03/30 09:25:45;;;;;;;13.85;4.40;;;;;;;11.90;46.53;98781.56;5089759;28;20530;-62
2022/03/30 09:28:14;;;;;;;11.30;3.72;;;;;;;11.96;46.99;98775.81;5088073;28;20078;-60
2022/03/30 09:30:42;;;;;;;9.68;4.15;;;;;;;12.00;47.14;98777.22;5089446;28;20101;-60
2022/03/30 09:33:11;;;;;;;12.27;4.88;;;;;;;12.06;47.07;98770.66;5089739;28;20044;-60
2022/03/30 09:35:41;;;;;;;11.63;4.93;;;;;;;12.14;47.15;98773.53;5089790;28;20490;-60
2022/03/30 09:38:22;;;;;;;12.55;4.70;;;;;;;12.20;47.00;98774.84;5089423;28;20055;-60
2022/03/30 09:40:49;;;;;;;10.43;4.82;;;;;;;12.29;46.90;98776.75;5089206;28;20048;-60
2022/03/30 09:43:19;;;;;;;12.27;4.53;;;;;;;12.35;46.35;98780.72;5089698;28;20215;-60
2022/03/30 09:45:48;;;;;;;13.00;4.85;;;;;;;12.41;46.38;98779.38;5088528;28;20059;-60
2022/03/30 09:48:24;;;;;;;9.57;4.47;;;;;;;12.43;46.00;98777.44;5089562;28;20040;-59
2022/03/30 09:50:53;;;;;;;11.35;4.07;;;;;;;12.46;46.15;98779.84;5089339;28;20044;-60
2022/03/30 09:53:25;;;;;;;10.20;4.68;;;;;;;12.47;45.71;98773.59;5089444;28;20044;-62
2022/03/30 09:56:05;;;;;;;14.07;4.47;;;;;;;12.46;45.87;98764.00;5088166;28;20056;-60
2022/03/30 09:58:34;;;;;;;18.20;5.22;;;;;;;12.46;46.40;98762.22;5089395;28;20508;-61
2022/03/30 10:01:10;;;;;;;11.13;4.88;;;;;;;12.46;46.29;98754.31;5087906;28;20077;-61
2022/03/30 10:03:43;;;;;;;13.88;4.78;;;;;;;12.49;46.46;98764.59;5089138;28;20557;-61
2022/03/30 10:06:16;;;;;;;13.93;5.22;;;;;;;12.53;46.34;98762.56;5089700;28;20385;-61
2022/03/30 10:08:45;;;;;;;11.45;4.72;;;;;;;12.59;46.59;98759.41;5093125;28;20056;-61
2022/03/30 10:11:16;;;;;;;9.70;4.70;;;;;;;12.66;46.73;98759.75;5091686;28;20496;-60
2022/03/30 10:13:47;;;;;;;12.73;5.07;;;;;;;12.74;46.75;98737.97;5093408;28;20097;-61
2022/03/30 10:16:33;;;;;;;13.77;4.57;;;;;;;12.86;46.70;98749.34;5092207;28;20139;-61
2022/03/30 10:19:01;;;;;;;11.95;4.60;;;;;;;12.96;46.76;98746.75;5092760;28;20054;-61
2022/03/30 10:21:36;;;;;;;9.63;4.75;;;;;;;13.07;46.72;98745.84;5092620;28;20063;-60
2022/03/30 10:24:38;;;;;;;12.75;4.40;;;;;;;13.20;46.60;98743.84;5091649;28;20429;-60
2022/03/30 10:27:26;;;;;;;10.98;4.18;;;;;;;13.36;46.55;98740.78;5092403;28;20048;-61
2022/03/30 10:29:57;;;;;;;8.85;3.88;;;;;;;13.55;46.52;98741.88;5092340;28;20048;-62
2022/03/30 10:32:25;;;;;;;10.73;4.88;;;;;;;13.71;46.46;98737.91;5091547;28;20496;-62
2022/03/30 10:34:59;;;;;;;9.65;4.38;;;;;;;13.84;45.65;98733.22;5091183;28;20074;-61
2022/03/30 10:37:36;;;;;;;8.30;4.55;;;;;;;13.94;45.40;98736.72;5092908;28;20052;-60
2022/03/30 10:40:03;;;;;;;6.93;4.05;;;;;;;14.09;45.42;98725.75;5092137;28;20059;-60
2022/03/30 10:42:52;;;;;;;12.93;4.95;;;;;;;14.17;45.53;98731.19;5092411;28;20055;-61
2022/03/30 10:45:25;;;;;;;10.43;4.45;;;;;;;14.32;45.20;98729.00;5090795;28;20397;-61
2022/03/30 10:48:11;;;;;;;8.65;4.38;;;;;;;14.46;44.93;98718.97;5092544;28;20105;-60
2022/03/30 10:51:10;;;;;;;9.77;4.10;;;;;;;14.58;44.71;98719.69;5091954;28;20409;-61
2022/03/30 10:53:39;;;;;;;11.35;5.35;;;;;;;14.75;44.50;98722.59;5090356;28;20445;-61
2022/03/30 10:56:09;;;;;;;8.30;5.22;;;;;;;14.84;44.32;98727.13;5092283;28;20060;-61
2022/03/30 10:58:37;;;;;;;14.02;5.35;;;;;;;14.96;44.88;98725.97;5092421;28;20047;-63
2022/03/30 11:01:22;;;;;;;14.45;5.85;;;;;;;15.08;44.94;98720.53;5090677;28;20044;-61
2022/03/30 11:04:05;;;;;;;21.02;5.28;;;;;;;15.26;44.11;98717.13;5090770;28;20052;-61
2022/03/30 11:06:37;;;;;;;12.48;4.68;;;;;;;15.41;43.40;98717.50;5091668;28;20056;-64
2022/03/30 11:09:07;;;;;;;9.67;4.60;;;;;;;15.49;43.20;98713.16;5090396;28;20489;-62
2022/03/30 11:11:39;;;;;;;7.28;4.20;;;;;;;15.53;42.74;98710.19;5090582;28;20654;-61
2022/03/30 11:14:25;;;;;;;11.07;5.03;;;;;;;15.45;42.27;98698.53;5090796;28;20059;-61
2022/03/30 11:16:57;;;;;;;7.85;4.50;;;;;;;15.45;42.64;98709.13;5091851;28;20553;-61
2022/03/30 11:19:29;;;;;;;13.03;4.80;;;;;;;15.40;42.78;98706.06;5091717;28;20389;-61
2022/03/30 11:22:07;;;;;;;13.77;5.03;;;;;;;15.41;42.81;98705.09;5090560;28;20289;-61
2022/03/30 11:24:34;;;;;;;8.23;4.30;;;;;;;15.45;42.69;98709.13;5090170;28;20496;-61
2022/03/30 11:27:01;;;;;;;12.00;4.85;;;;;;;15.43;42.00;98699.63;5091454;28;20048;-62
2022/03/30 11:29:40;;;;;;;12.55;4.85;;;;;;;15.33;41.69;98695.19;5091695;28;20056;-62
2022/03/30 11:32:18;;;;;;;11.25;4.82;;;;;;;15.22;41.25;98706.81;5091728;28;20052;-61
2022/03/30 11:34:48;;;;;;;9.35;5.03;;;;;;;15.14;41.25;98703.22;5091588;28;20048;-60
2022/03/30 11:37:15;;;;;;;9.75;4.35;;;;;;;14.97;41.28;98695.88;5090259;28;20048;-61
2022/03/30 11:39:41;;;;;;;9.05;4.43;;;;;;;14.80;41.58;98691.28;5091200;28;20484;-61
2022/03/30 11:42:08;;;;;;;10.45;4.97;;;;;;;14.64;41.80;98695.28;5091605;28;20059;-61
2022/03/30 11:47:25;;;;;;;8.02;4.45;;;;;;;14.36;41.67;98695.16;5091368;28;20044;-61
2022/03/30 11:49:53;;;;;;;10.32;4.78;;;;;;;14.24;42.09;98697.09;5089423;28;20071;-61